sensor_id;sensor_type;location;lat;lon;timestamp;P1;durP1;ratioP1;P2;durP2;ratioP2
7289;SDS011;63176;52.678;13.250;2023-01-08T00:01:42;2.95;;;2.60;;
7289;SDS011;63176;52.678;13.250;2023-01-08T00:04:07;2.87;;;2.40;;
7289;SDS011;63176;52.678;13.250;2023-01-08T00:06:34;3.13;;;2.35;;
7289;SDS011;63176;52.678;13.250;2023-01-08T00:08:59;4.43;;;2.07;;
7289;SDS011;63176;52.678;13.250;2023-01-08T00:11:25;3.10;;;2.72;;
7289;SDS011;63176;52.678;13.250;2023-01-08T00:13:51;2.33;;;1.90;;
7289;SDS011;63176;52.678;13.250;2023-01-08T00:16:17;2.30;;;2.10;;
7289;SDS011;63176;52.678;13.250;2023-01-08T00:18:44;2.30;;;2.10;;
7289;SDS011;63176;52.678;13.250;2023-01-08T00:21:10;2.50;;;2.30;;
7289;SDS011;63176;52.678;13.250;2023-01-08T00:23:36;3.50;;;2.00;;
7289;SDS011;63176;52.678;13.250;2023-01-08T00:26:03;2.83;;;2.53;;
7289;SDS011;63176;52.678;13.250;2023-01-08T00:28:30;3.05;;;2.45;;
7289;SDS011;63176;52.678;13.250;2023-01-08T00:30:56;2.93;;;2.60;;
7289;SDS011;63176;52.678;13.250;2023-01-08T00:33:22;3.00;;;2.30;;
7289;SDS011;63176;52.678;13.250;2023-01-08T00:35:48;2.73;;;2.40;;
7289;SDS011;63176;52.678;13.250;2023-01-08T00:38:13;2.63;;;2.40;;
7289;SDS011;63176;52.678;13.250;2023-01-08T00:40:39;3.13;;;2.23;;
7289;SDS011;63176;52.678;13.250;2023-01-08T00:43:05;2.63;;;2.20;;
7289;SDS011;63176;52.678;13.250;2023-01-08T00:45:31;4.35;;;2.55;;
7289;SDS011;63176;52.678;13.250;2023-01-08T00:47:57;2.73;;;2.43;;
7289;SDS011;63176;52.678;13.250;2023-01-08T00:50:23;2.80;;;2.17;;
7289;SDS011;63176;52.678;13.250;2023-01-08T00:52:49;2.40;;;2.17;;
7289;SDS011;63176;52.678;13.250;2023-01-08T00:55:15;2.30;;;2.10;;
7289;SDS011;63176;52.678;13.250;2023-01-08T00:57:40;4.27;;;2.20;;
7289;SDS011;63176;52.678;13.250;2023-01-08T01:00:07;3.73;;;2.70;;
7289;SDS011;63176;52.678;13.250;2023-01-08T01:02:36;5.05;;;2.25;;
7289;SDS011;63176;52.678;13.250;2023-01-08T01:05:02;2.40;;;2.20;;
7289;SDS011;63176;52.678;13.250;2023-01-08T01:07:29;4.63;;;2.65;;
7289;SDS011;63176;52.678;13.250;2023-01-08T01:09:55;4.43;;;2.13;;
7289;SDS011;63176;52.678;13.250;2023-01-08T01:12:20;2.77;;;2.57;;
7289;SDS011;63176;52.678;13.250;2023-01-08T01:14:46;2.40;;;2.20;;
7289;SDS011;63176;52.678;13.250;2023-01-08T01:17:12;2.70;;;1.83;;
7289;SDS011;63176;52.678;13.250;2023-01-08T01:19:38;3.00;;;2.67;;
7289;SDS011;63176;52.678;13.250;2023-01-08T01:22:03;2.70;;;2.27;;
7289;SDS011;63176;52.678;13.250;2023-01-08T01:24:29;3.27;;;2.23;;
7289;SDS011;63176;52.678;13.250;2023-01-08T01:26:55;3.17;;;2.30;;
7289;SDS011;63176;52.678;13.250;2023-01-08T01:29:21;3.08;;;2.45;;
7289;SDS011;63176;52.678;13.250;2023-01-08T01:31:48;3.83;;;2.10;;
7289;SDS011;63176;52.678;13.250;2023-01-08T01:34:13;1.97;;;1.77;;
7289;SDS011;63176;52.678;13.250;2023-01-08T01:36:39;2.57;;;2.07;;
7289;SDS011;63176;52.678;13.250;2023-01-08T01:39:05;2.77;;;2.40;;
7289;SDS011;63176;52.678;13.250;2023-01-08T01:41:32;5.13;;;2.30;;
7289;SDS011;63176;52.678;13.250;2023-01-08T01:47:25;3.28;;;2.28;;
7289;SDS011;63176;52.678;13.250;2023-01-08T01:52:46;3.78;;;3.45;;
7289;SDS011;63176;52.678;13.250;2023-01-08T01:55:17;2.15;;;2.00;;
7289;SDS011;63176;52.678;13.250;2023-01-08T01:57:44;3.30;;;1.93;;
7289;SDS011;63176;52.678;13.250;2023-01-08T02:00:22;3.13;;;2.67;;
7289;SDS011;63176;52.678;13.250;2023-01-08T02:02:48;3.58;;;2.50;;
7289;SDS011;63176;52.678;13.250;2023-01-08T02:05:14;3.10;;;2.78;;
7289;SDS011;63176;52.678;13.250;2023-01-08T02:07:55;3.53;;;2.50;;
7289;SDS011;63176;52.678;13.250;2023-01-08T02:13:35;3.53;;;2.50;;
7289;SDS011;63176;52.678;13.250;2023-01-08T02:18:45;3.05;;;2.75;;
7289;SDS011;63176;52.678;13.250;2023-01-08T02:21:20;2.92;;;2.58;;
7289;SDS011;63176;52.678;13.250;2023-01-08T02:24:12;3.20;;;2.50;;
7289;SDS011;63176;52.678;13.250;2023-01-08T02:26:52;4.30;;;3.28;;
7289;SDS011;63176;52.678;13.250;2023-01-08T02:29:21;4.35;;;2.70;;
7289;SDS011;63176;52.678;13.250;2023-01-08T02:31:52;3.85;;;3.13;;
7289;SDS011;63176;52.678;13.250;2023-01-08T02:34:19;5.10;;;3.20;;
7289;SDS011;63176;52.678;13.250;2023-01-08T02:47:34;3.35;;;2.85;;
7289;SDS011;63176;52.678;13.250;2023-01-08T02:55:54;3.25;;;2.95;;
7289;SDS011;63176;52.678;13.250;2023-01-08T02:58:26;3.05;;;2.67;;
7289;SDS011;63176;52.678;13.250;2023-01-08T03:00:54;3.40;;;2.70;;
7289;SDS011;63176;52.678;13.250;2023-01-08T03:03:22;5.45;;;2.78;;
7289;SDS011;63176;52.678;13.250;2023-01-08T03:05:55;3.75;;;2.95;;
7289;SDS011;63176;52.678;13.250;2023-01-08T03:08:25;2.78;;;2.50;;
7289;SDS011;63176;52.678;13.250;2023-01-08T03:10:53;3.72;;;3.30;;
7289;SDS011;63176;52.678;13.250;2023-01-08T03:13:30;4.05;;;2.88;;
7289;SDS011;63176;52.678;13.250;2023-01-08T03:15:58;7.10;;;3.45;;
7289;SDS011;63176;52.678;13.250;2023-01-08T03:18:32;3.60;;;3.05;;
7289;SDS011;63176;52.678;13.250;2023-01-08T03:21:01;3.42;;;3.10;;
7289;SDS011;63176;52.678;13.250;2023-01-08T03:23:30;3.95;;;3.50;;
7289;SDS011;63176;52.678;13.250;2023-01-08T03:25:59;3.70;;;3.40;;
7289;SDS011;63176;52.678;13.250;2023-01-08T03:28:28;3.92;;;3.53;;
7289;SDS011;63176;52.678;13.250;2023-01-08T03:30:58;3.30;;;3.00;;
7289;SDS011;63176;52.678;13.250;2023-01-08T03:33:26;4.35;;;3.20;;
7289;SDS011;63176;52.678;13.250;2023-01-08T03:35:54;4.28;;;3.38;;
7289;SDS011;63176;52.678;13.250;2023-01-08T03:38:24;3.38;;;2.92;;
7289;SDS011;63176;52.678;13.250;2023-01-08T03:41:02;3.88;;;3.35;;
7289;SDS011;63176;52.678;13.250;2023-01-08T03:43:33;4.68;;;3.08;;
7289;SDS011;63176;52.678;13.250;2023-01-08T03:46:00;3.93;;;3.13;;
7289;SDS011;63176;52.678;13.250;2023-01-08T03:48:29;4.82;;;3.90;;
7289;SDS011;63176;52.678;13.250;2023-01-08T03:50:57;3.20;;;2.88;;
7289;SDS011;63176;52.678;13.250;2023-01-08T03:53:23;4.45;;;3.63;;
7289;SDS011;63176;52.678;13.250;2023-01-08T03:55:48;4.50;;;3.90;;
7289;SDS011;63176;52.678;13.250;2023-01-08T03:58:14;4.17;;;3.40;;
7289;SDS011;63176;52.678;13.250;2023-01-08T04:00:40;4.50;;;2.83;;
7289;SDS011;63176;52.678;13.250;2023-01-08T04:03:05;3.63;;;3.03;;
7289;SDS011;63176;52.678;13.250;2023-01-08T04:05:31;5.50;;;3.80;;
7289;SDS011;63176;52.678;13.250;2023-01-08T04:07:57;4.43;;;3.30;;
7289;SDS011;63176;52.678;13.250;2023-01-08T04:10:23;5.17;;;3.60;;
7289;SDS011;63176;52.678;13.250;2023-01-08T04:12:49;6.70;;;3.92;;
7289;SDS011;63176;52.678;13.250;2023-01-08T04:15:15;5.87;;;3.53;;
7289;SDS011;63176;52.678;13.250;2023-01-08T04:17:41;6.05;;;3.70;;
7289;SDS011;63176;52.678;13.250;2023-01-08T04:20:07;3.60;;;3.00;;
7289;SDS011;63176;52.678;13.250;2023-01-08T04:22:33;4.70;;;3.53;;
7289;SDS011;63176;52.678;13.250;2023-01-08T04:24:58;5.67;;;3.63;;
7289;SDS011;63176;52.678;13.250;2023-01-08T04:27:24;4.13;;;3.67;;
7289;SDS011;63176;52.678;13.250;2023-01-08T04:29:50;4.70;;;3.40;;
7289;SDS011;63176;52.678;13.250;2023-01-08T04:32:15;4.00;;;3.70;;
7289;SDS011;63176;52.678;13.250;2023-01-08T04:34:41;5.30;;;3.90;;
7289;SDS011;63176;52.678;13.250;2023-01-08T04:37:06;5.33;;;3.67;;
7289;SDS011;63176;52.678;13.250;2023-01-08T04:39:32;4.53;;;3.40;;
7289;SDS011;63176;52.678;13.250;2023-01-08T04:41:58;3.73;;;3.33;;
7289;SDS011;63176;52.678;13.250;2023-01-08T04:44:23;5.57;;;3.43;;
7289;SDS011;63176;52.678;13.250;2023-01-08T04:46:49;3.60;;;3.13;;
7289;SDS011;63176;52.678;13.250;2023-01-08T04:49:15;4.60;;;3.77;;
7289;SDS011;63176;52.678;13.250;2023-01-08T04:51:40;4.27;;;3.33;;
7289;SDS011;63176;52.678;13.250;2023-01-08T04:54:06;4.67;;;3.80;;
7289;SDS011;63176;52.678;13.250;2023-01-08T04:56:32;3.80;;;3.40;;
7289;SDS011;63176;52.678;13.250;2023-01-08T04:58:57;6.10;;;4.20;;
7289;SDS011;63176;52.678;13.250;2023-01-08T05:01:24;6.20;;;4.10;;
7289;SDS011;63176;52.678;13.250;2023-01-08T05:03:57;5.97;;;3.70;;
7289;SDS011;63176;52.678;13.250;2023-01-08T05:06:26;4.40;;;3.55;;
7289;SDS011;63176;52.678;13.250;2023-01-08T05:08:53;4.78;;;3.95;;
7289;SDS011;63176;52.678;13.250;2023-01-08T05:11:19;6.17;;;3.80;;
7289;SDS011;63176;52.678;13.250;2023-01-08T05:13:48;5.07;;;3.58;;
7289;SDS011;63176;52.678;13.250;2023-01-08T05:16:15;6.22;;;4.03;;
7289;SDS011;63176;52.678;13.250;2023-01-08T05:18:42;5.65;;;3.83;;
7289;SDS011;63176;52.678;13.250;2023-01-08T05:21:08;4.25;;;3.50;;
7289;SDS011;63176;52.678;13.250;2023-01-08T05:23:34;4.90;;;3.92;;
7289;SDS011;63176;52.678;13.250;2023-01-08T05:26:01;5.30;;;3.60;;
7289;SDS011;63176;52.678;13.250;2023-01-08T05:28:28;5.40;;;3.60;;
7289;SDS011;63176;52.678;13.250;2023-01-08T05:30:54;4.38;;;3.40;;
7289;SDS011;63176;52.678;13.250;2023-01-08T05:33:20;4.40;;;3.30;;
7289;SDS011;63176;52.678;13.250;2023-01-08T05:35:46;6.90;;;4.50;;
7289;SDS011;63176;52.678;13.250;2023-01-08T05:38:11;4.07;;;3.50;;
7289;SDS011;63176;52.678;13.250;2023-01-08T05:40:37;4.50;;;3.87;;
7289;SDS011;63176;52.678;13.250;2023-01-08T05:43:03;6.43;;;4.13;;
7289;SDS011;63176;52.678;13.250;2023-01-08T05:45:29;5.30;;;3.40;;
7289;SDS011;63176;52.678;13.250;2023-01-08T05:47:56;5.45;;;3.67;;
7289;SDS011;63176;52.678;13.250;2023-01-08T05:50:21;10.10;;;4.40;;
7289;SDS011;63176;52.678;13.250;2023-01-08T05:52:47;8.23;;;4.57;;
7289;SDS011;63176;52.678;13.250;2023-01-08T05:55:13;5.47;;;3.73;;
7289;SDS011;63176;52.678;13.250;2023-01-08T05:57:38;4.90;;;3.97;;
7289;SDS011;63176;52.678;13.250;2023-01-08T06:00:05;5.60;;;3.90;;
7289;SDS011;63176;52.678;13.250;2023-01-08T06:02:32;3.65;;;3.05;;
7289;SDS011;63176;52.678;13.250;2023-01-08T06:04:58;3.88;;;3.40;;
7289;SDS011;63176;52.678;13.250;2023-01-08T06:07:24;6.20;;;4.10;;
7289;SDS011;63176;52.678;13.250;2023-01-08T06:09:49;3.90;;;3.60;;
7289;SDS011;63176;52.678;13.250;2023-01-08T06:12:15;4.90;;;3.53;;
7289;SDS011;63176;52.678;13.250;2023-01-08T06:14:40;3.87;;;3.50;;
7289;SDS011;63176;52.678;13.250;2023-01-08T06:17:06;5.67;;;4.00;;
7289;SDS011;63176;52.678;13.250;2023-01-08T06:19:32;7.07;;;4.03;;
7289;SDS011;63176;52.678;13.250;2023-01-08T06:21:57;4.13;;;3.73;;
7289;SDS011;63176;52.678;13.250;2023-01-08T06:24:23;4.03;;;3.20;;
7289;SDS011;63176;52.678;13.250;2023-01-08T06:26:49;3.40;;;3.10;;
7289;SDS011;63176;52.678;13.250;2023-01-08T06:29:14;3.87;;;3.47;;
7289;SDS011;63176;52.678;13.250;2023-01-08T06:31:40;9.90;;;4.00;;
7289;SDS011;63176;52.678;13.250;2023-01-08T06:34:06;4.87;;;3.40;;
7289;SDS011;63176;52.678;13.250;2023-01-08T06:36:31;4.93;;;4.00;;
7289;SDS011;63176;52.678;13.250;2023-01-08T06:38:57;4.37;;;3.40;;
7289;SDS011;63176;52.678;13.250;2023-01-08T06:41:22;4.13;;;3.57;;
7289;SDS011;63176;52.678;13.250;2023-01-08T06:43:48;4.10;;;3.20;;
7289;SDS011;63176;52.678;13.250;2023-01-08T06:46:14;5.60;;;4.07;;
7289;SDS011;63176;52.678;13.250;2023-01-08T06:48:39;3.53;;;3.13;;
7289;SDS011;63176;52.678;13.250;2023-01-08T06:51:05;5.03;;;3.13;;
7289;SDS011;63176;52.678;13.250;2023-01-08T06:53:31;5.33;;;3.80;;
7289;SDS011;63176;52.678;13.250;2023-01-08T06:55:57;4.47;;;4.03;;
7289;SDS011;63176;52.678;13.250;2023-01-08T06:58:26;7.47;;;3.50;;
7289;SDS011;63176;52.678;13.250;2023-01-08T07:00:52;5.07;;;3.60;;
7289;SDS011;63176;52.678;13.250;2023-01-08T07:03:18;4.57;;;3.37;;
7289;SDS011;63176;52.678;13.250;2023-01-08T07:05:44;3.63;;;3.00;;
7289;SDS011;63176;52.678;13.250;2023-01-08T07:08:13;3.23;;;2.90;;
7289;SDS011;63176;52.678;13.250;2023-01-08T07:10:39;5.53;;;3.72;;
7289;SDS011;63176;52.678;13.250;2023-01-08T07:13:05;2.80;;;2.60;;
7289;SDS011;63176;52.678;13.250;2023-01-08T07:15:37;4.35;;;2.85;;
7289;SDS011;63176;52.678;13.250;2023-01-08T07:18:06;3.90;;;3.00;;
7289;SDS011;63176;52.678;13.250;2023-01-08T07:20:33;3.10;;;2.50;;
7289;SDS011;63176;52.678;13.250;2023-01-08T07:23:03;4.32;;;3.05;;
7289;SDS011;63176;52.678;13.250;2023-01-08T07:25:30;2.90;;;2.70;;
7289;SDS011;63176;52.678;13.250;2023-01-08T07:27:56;3.33;;;3.03;;
7289;SDS011;63176;52.678;13.250;2023-01-08T07:30:22;2.78;;;2.40;;
7289;SDS011;63176;52.678;13.250;2023-01-08T07:32:48;4.13;;;3.00;;
7289;SDS011;63176;52.678;13.250;2023-01-08T07:35:14;5.43;;;2.73;;
7289;SDS011;63176;52.678;13.250;2023-01-08T07:37:39;3.17;;;2.87;;
7289;SDS011;63176;52.678;13.250;2023-01-08T07:40:06;4.65;;;2.28;;
7289;SDS011;63176;52.678;13.250;2023-01-08T07:42:33;3.85;;;3.30;;
7289;SDS011;63176;52.678;13.250;2023-01-08T07:44:59;4.00;;;2.80;;
7289;SDS011;63176;52.678;13.250;2023-01-08T07:47:24;3.70;;;3.13;;
7289;SDS011;63176;52.678;13.250;2023-01-08T07:49:50;3.70;;;3.10;;
7289;SDS011;63176;52.678;13.250;2023-01-08T07:52:16;4.33;;;3.17;;
7289;SDS011;63176;52.678;13.250;2023-01-08T07:54:41;5.27;;;3.57;;
7289;SDS011;63176;52.678;13.250;2023-01-08T07:57:07;3.30;;;2.83;;
7289;SDS011;63176;52.678;13.250;2023-01-08T07:59:33;4.20;;;3.00;;
7289;SDS011;63176;52.678;13.250;2023-01-08T08:01:58;4.23;;;2.87;;
7289;SDS011;63176;52.678;13.250;2023-01-08T08:04:24;4.00;;;2.93;;
7289;SDS011;63176;52.678;13.250;2023-01-08T08:06:50;2.47;;;2.27;;
7289;SDS011;63176;52.678;13.250;2023-01-08T08:09:16;5.00;;;3.00;;
7289;SDS011;63176;52.678;13.250;2023-01-08T08:11:41;4.20;;;3.30;;
7289;SDS011;63176;52.678;13.250;2023-01-08T08:14:07;5.03;;;2.80;;
7289;SDS011;63176;52.678;13.250;2023-01-08T08:16:33;5.37;;;3.50;;
7289;SDS011;63176;52.678;13.250;2023-01-08T08:18:59;3.87;;;2.70;;
7289;SDS011;63176;52.678;13.250;2023-01-08T08:21:24;6.07;;;3.37;;
7289;SDS011;63176;52.678;13.250;2023-01-08T08:23:50;3.23;;;2.80;;
7289;SDS011;63176;52.678;13.250;2023-01-08T08:26:16;5.47;;;3.10;;
7289;SDS011;63176;52.678;13.250;2023-01-08T08:28:42;4.67;;;3.37;;
7289;SDS011;63176;52.678;13.250;2023-01-08T08:31:07;4.10;;;3.30;;
7289;SDS011;63176;52.678;13.250;2023-01-08T08:33:33;4.80;;;3.30;;
7289;SDS011;63176;52.678;13.250;2023-01-08T08:35:59;4.17;;;3.43;;
7289;SDS011;63176;52.678;13.250;2023-01-08T08:38:24;4.37;;;3.30;;
7289;SDS011;63176;52.678;13.250;2023-01-08T08:40:50;5.80;;;3.60;;
7289;SDS011;63176;52.678;13.250;2023-01-08T08:43:16;5.15;;;3.88;;
7289;SDS011;63176;52.678;13.250;2023-01-08T08:45:42;3.83;;;3.43;;
7289;SDS011;63176;52.678;13.250;2023-01-08T08:48:08;5.90;;;3.70;;
7289;SDS011;63176;52.678;13.250;2023-01-08T08:50:35;4.45;;;4.00;;
7289;SDS011;63176;52.678;13.250;2023-01-08T08:53:01;5.40;;;3.45;;
7289;SDS011;63176;52.678;13.250;2023-01-08T08:55:29;6.28;;;4.40;;
7289;SDS011;63176;52.678;13.250;2023-01-08T08:58:03;5.13;;;3.60;;
7289;SDS011;63176;52.678;13.250;2023-01-08T09:00:30;3.83;;;3.08;;
7289;SDS011;63176;52.678;13.250;2023-01-08T09:02:56;3.67;;;3.30;;
7289;SDS011;63176;52.678;13.250;2023-01-08T09:05:22;4.40;;;3.70;;
7289;SDS011;63176;52.678;13.250;2023-01-08T09:07:48;3.10;;;2.80;;
7289;SDS011;63176;52.678;13.250;2023-01-08T09:10:13;4.17;;;3.60;;
7289;SDS011;63176;52.678;13.250;2023-01-08T09:12:39;7.50;;;3.10;;
7289;SDS011;63176;52.678;13.250;2023-01-08T09:15:05;3.03;;;2.73;;
7289;SDS011;63176;52.678;13.250;2023-01-08T09:17:31;5.65;;;3.00;;
7289;SDS011;63176;52.678;13.250;2023-01-08T09:19:57;3.50;;;3.20;;
7289;SDS011;63176;52.678;13.250;2023-01-08T09:22:23;5.17;;;3.23;;
7289;SDS011;63176;52.678;13.250;2023-01-08T09:24:49;3.20;;;2.87;;
7289;SDS011;63176;52.678;13.250;2023-01-08T09:27:14;2.63;;;2.43;;
7289;SDS011;63176;52.678;13.250;2023-01-08T09:29:40;4.03;;;3.07;;
7289;SDS011;63176;52.678;13.250;2023-01-08T09:32:06;3.97;;;2.60;;
7289;SDS011;63176;52.678;13.250;2023-01-08T09:34:32;5.32;;;3.75;;
7289;SDS011;63176;52.678;13.250;2023-01-08T09:37:00;4.00;;;3.40;;
7289;SDS011;63176;52.678;13.250;2023-01-08T09:39:26;3.57;;;3.23;;
7289;SDS011;63176;52.678;13.250;2023-01-08T09:41:51;4.33;;;3.53;;
7289;SDS011;63176;52.678;13.250;2023-01-08T09:44:23;4.90;;;3.05;;
7289;SDS011;63176;52.678;13.250;2023-01-08T09:46:53;5.90;;;3.72;;
7289;SDS011;63176;52.678;13.250;2023-01-08T09:49:20;4.78;;;3.72;;
7289;SDS011;63176;52.678;13.250;2023-01-08T09:51:50;4.22;;;3.40;;
7289;SDS011;63176;52.678;13.250;2023-01-08T09:54:16;3.85;;;3.15;;
7289;SDS011;63176;52.678;13.250;2023-01-08T09:56:42;3.13;;;2.87;;
7289;SDS011;63176;52.678;13.250;2023-01-08T09:59:10;4.82;;;3.20;;
7289;SDS011;63176;52.678;13.250;2023-01-08T10:01:40;5.75;;;4.38;;
7289;SDS011;63176;52.678;13.250;2023-01-08T10:04:16;4.70;;;3.15;;
7289;SDS011;63176;52.678;13.250;2023-01-08T10:06:48;6.35;;;3.80;;
7289;SDS011;63176;52.678;13.250;2023-01-08T10:09:14;5.20;;;3.50;;
7289;SDS011;63176;52.678;13.250;2023-01-08T10:11:44;3.67;;;3.27;;
7289;SDS011;63176;52.678;13.250;2023-01-08T10:14:22;5.47;;;3.63;;
7289;SDS011;63176;52.678;13.250;2023-01-08T10:16:55;4.32;;;3.10;;
7289;SDS011;63176;52.678;13.250;2023-01-08T10:19:26;3.47;;;3.15;;
7289;SDS011;63176;52.678;13.250;2023-01-08T10:21:52;3.77;;;3.00;;
7289;SDS011;63176;52.678;13.250;2023-01-08T10:24:31;3.20;;;2.90;;
7289;SDS011;63176;52.678;13.250;2023-01-08T10:27:08;3.47;;;3.10;;
7289;SDS011;63176;52.678;13.250;2023-01-08T10:29:41;3.90;;;2.85;;
7289;SDS011;63176;52.678;13.250;2023-01-08T10:32:29;4.72;;;3.40;;
7289;SDS011;63176;52.678;13.250;2023-01-08T10:34:55;3.55;;;2.90;;
7289;SDS011;63176;52.678;13.250;2023-01-08T10:39:47;4.57;;;3.40;;
7289;SDS011;63176;52.678;13.250;2023-01-08T10:42:13;4.15;;;3.28;;
7289;SDS011;63176;52.678;13.250;2023-01-08T10:45:02;6.43;;;3.92;;
7289;SDS011;63176;52.678;13.250;2023-01-08T10:47:30;3.85;;;3.55;;
7289;SDS011;63176;52.678;13.250;2023-01-08T10:49:59;3.28;;;2.90;;
7289;SDS011;63176;52.678;13.250;2023-01-08T10:54:56;3.85;;;3.25;;
7289;SDS011;63176;52.678;13.250;2023-01-08T10:57:35;5.13;;;3.20;;
7289;SDS011;63176;52.678;13.250;2023-01-08T11:00:01;3.83;;;3.03;;
7289;SDS011;63176;52.678;13.250;2023-01-08T11:02:36;5.27;;;3.47;;
7289;SDS011;63176;52.678;13.250;2023-01-08T11:05:03;3.42;;;3.13;;
7289;SDS011;63176;52.678;13.250;2023-01-08T11:07:31;4.95;;;3.45;;
7289;SDS011;63176;52.678;13.250;2023-01-08T11:10:01;5.70;;;3.25;;
7289;SDS011;63176;52.678;13.250;2023-01-08T11:12:41;4.20;;;3.17;;
7289;SDS011;63176;52.678;13.250;2023-01-08T11:15:22;4.15;;;3.20;;
7289;SDS011;63176;52.678;13.250;2023-01-08T11:20:38;4.53;;;3.45;;
7289;SDS011;63176;52.678;13.250;2023-01-08T11:23:13;4.93;;;3.50;;
7289;SDS011;63176;52.678;13.250;2023-01-08T11:25:39;6.40;;;3.53;;
7289;SDS011;63176;52.678;13.250;2023-01-08T11:28:13;4.22;;;3.35;;
7289;SDS011;63176;52.678;13.250;2023-01-08T11:30:44;4.50;;;3.00;;
7289;SDS011;63176;52.678;13.250;2023-01-08T11:33:20;4.93;;;3.55;;
7289;SDS011;63176;52.678;13.250;2023-01-08T11:36:10;5.20;;;3.30;;
7289;SDS011;63176;52.678;13.250;2023-01-08T11:38:44;4.03;;;3.10;;
7289;SDS011;63176;52.678;13.250;2023-01-08T11:41:19;5.17;;;3.70;;
7289;SDS011;63176;52.678;13.250;2023-01-08T11:47:02;8.00;;;4.88;;
7289;SDS011;63176;52.678;13.250;2023-01-08T11:49:51;6.15;;;4.53;;
7289;SDS011;63176;52.678;13.250;2023-01-08T11:52:33;11.15;;;5.53;;
7289;SDS011;63176;52.678;13.250;2023-01-08T11:55:10;5.97;;;4.35;;
7289;SDS011;63176;52.678;13.250;2023-01-08T12:03:38;4.30;;;3.72;;
7289;SDS011;63176;52.678;13.250;2023-01-08T12:06:10;5.40;;;4.05;;
7289;SDS011;63176;52.678;13.250;2023-01-08T12:11:25;4.47;;;3.83;;
7289;SDS011;63176;52.678;13.250;2023-01-08T12:16:49;3.88;;;3.35;;
7289;SDS011;63176;52.678;13.250;2023-01-08T12:20:06;7.03;;;4.13;;
7289;SDS011;63176;52.678;13.250;2023-01-08T12:34:15;4.40;;;3.35;;
7289;SDS011;63176;52.678;13.250;2023-01-08T12:36:44;4.47;;;3.58;;
7289;SDS011;63176;52.678;13.250;2023-01-08T12:39:26;7.65;;;3.50;;
7289;SDS011;63176;52.678;13.250;2023-01-08T12:42:01;3.72;;;3.30;;
7289;SDS011;63176;52.678;13.250;2023-01-08T12:44:32;5.00;;;3.20;;
7289;SDS011;63176;52.678;13.250;2023-01-08T12:47:00;4.18;;;3.35;;
7289;SDS011;63176;52.678;13.250;2023-01-08T12:49:50;4.53;;;3.40;;
7289;SDS011;63176;52.678;13.250;2023-01-08T12:52:34;5.07;;;3.15;;
7289;SDS011;63176;52.678;13.250;2023-01-08T13:03:41;3.90;;;2.88;;
7289;SDS011;63176;52.678;13.250;2023-01-08T13:06:12;4.25;;;3.03;;
7289;SDS011;63176;52.678;13.250;2023-01-08T13:08:40;5.60;;;4.15;;
7289;SDS011;63176;52.678;13.250;2023-01-08T13:11:12;3.00;;;2.70;;
7289;SDS011;63176;52.678;13.250;2023-01-08T13:13:49;7.40;;;2.92;;
7289;SDS011;63176;52.678;13.250;2023-01-08T13:16:26;3.75;;;3.20;;
7289;SDS011;63176;52.678;13.250;2023-01-08T13:18:55;3.78;;;3.05;;
7289;SDS011;63176;52.678;13.250;2023-01-08T13:21:29;4.00;;;3.42;;
7289;SDS011;63176;52.678;13.250;2023-01-08T13:24:06;3.42;;;2.83;;
7289;SDS011;63176;52.678;13.250;2023-01-08T13:26:54;5.50;;;3.50;;
7289;SDS011;63176;52.678;13.250;2023-01-08T13:29:39;4.45;;;3.42;;
7289;SDS011;63176;52.678;13.250;2023-01-08T13:35:17;3.55;;;3.05;;
7289;SDS011;63176;52.678;13.250;2023-01-08T13:37:47;4.05;;;2.97;;
7289;SDS011;63176;52.678;13.250;2023-01-08T13:40:34;4.03;;;3.40;;
7289;SDS011;63176;52.678;13.250;2023-01-08T13:43:11;3.70;;;3.17;;
7289;SDS011;63176;52.678;13.250;2023-01-08T13:45:37;4.25;;;3.42;;
7289;SDS011;63176;52.678;13.250;2023-01-08T13:48:04;3.83;;;3.33;;
7289;SDS011;63176;52.678;13.250;2023-01-08T13:50:30;4.60;;;3.30;;
7289;SDS011;63176;52.678;13.250;2023-01-08T13:52:56;6.82;;;3.72;;
7289;SDS011;63176;52.678;13.250;2023-01-08T13:57:53;3.42;;;3.13;;
7289;SDS011;63176;52.678;13.250;2023-01-08T14:00:23;3.50;;;3.17;;
7289;SDS011;63176;52.678;13.250;2023-01-08T14:03:02;3.97;;;3.40;;
7289;SDS011;63176;52.678;13.250;2023-01-08T14:05:28;5.07;;;3.30;;
7289;SDS011;63176;52.678;13.250;2023-01-08T14:07:56;4.95;;;3.25;;
7289;SDS011;63176;52.678;13.250;2023-01-08T14:10:23;4.47;;;3.40;;
7289;SDS011;63176;52.678;13.250;2023-01-08T14:12:50;5.22;;;3.15;;
7289;SDS011;63176;52.678;13.250;2023-01-08T14:15:24;5.45;;;3.70;;
7289;SDS011;63176;52.678;13.250;2023-01-08T14:17:52;7.60;;;4.38;;
7289;SDS011;63176;52.678;13.250;2023-01-08T14:20:27;5.60;;;4.40;;
7289;SDS011;63176;52.678;13.250;2023-01-08T14:22:56;6.88;;;4.50;;
7289;SDS011;63176;52.678;13.250;2023-01-08T14:25:22;8.45;;;4.93;;
7289;SDS011;63176;52.678;13.250;2023-01-08T14:27:55;4.43;;;3.83;;
7289;SDS011;63176;52.678;13.250;2023-01-08T14:30:29;5.90;;;4.28;;
7289;SDS011;63176;52.678;13.250;2023-01-08T14:32:56;4.82;;;3.92;;
7289;SDS011;63176;52.678;13.250;2023-01-08T14:35:28;7.47;;;4.90;;
7289;SDS011;63176;52.678;13.250;2023-01-08T14:37:58;5.30;;;4.20;;
7289;SDS011;63176;52.678;13.250;2023-01-08T14:40:29;8.45;;;4.63;;
7289;SDS011;63176;52.678;13.250;2023-01-08T14:42:57;5.38;;;4.10;;
7289;SDS011;63176;52.678;13.250;2023-01-08T14:45:31;2.90;;;2.63;;
7289;SDS011;63176;52.678;13.250;2023-01-08T14:48:11;4.00;;;2.75;;
7289;SDS011;63176;52.678;13.250;2023-01-08T14:50:53;4.00;;;3.60;;
7289;SDS011;63176;52.678;13.250;2023-01-08T14:53:31;4.65;;;3.85;;
7289;SDS011;63176;52.678;13.250;2023-01-08T14:56:12;5.95;;;4.90;;
7289;SDS011;63176;52.678;13.250;2023-01-08T14:58:41;4.40;;;3.40;;
7289;SDS011;63176;52.678;13.250;2023-01-08T15:01:15;4.75;;;3.55;;
7289;SDS011;63176;52.678;13.250;2023-01-08T15:03:45;6.38;;;4.47;;
7289;SDS011;63176;52.678;13.250;2023-01-08T15:06:26;4.35;;;3.30;;
7289;SDS011;63176;52.678;13.250;2023-01-08T15:08:54;5.97;;;3.88;;
7289;SDS011;63176;52.678;13.250;2023-01-08T15:11:26;5.70;;;3.97;;
7289;SDS011;63176;52.678;13.250;2023-01-08T15:13:54;4.05;;;3.00;;
7289;SDS011;63176;52.678;13.250;2023-01-08T15:21:46;6.97;;;4.40;;
7289;SDS011;63176;52.678;13.250;2023-01-08T15:24:35;4.22;;;3.50;;
7289;SDS011;63176;52.678;13.250;2023-01-08T15:27:03;5.50;;;3.70;;
7289;SDS011;63176;52.678;13.250;2023-01-08T15:29:34;4.80;;;3.55;;
7289;SDS011;63176;52.678;13.250;2023-01-08T15:34:43;4.85;;;3.70;;
7289;SDS011;63176;52.678;13.250;2023-01-08T15:37:10;4.35;;;3.10;;
7289;SDS011;63176;52.678;13.250;2023-01-08T15:39:37;5.05;;;3.47;;
7289;SDS011;63176;52.678;13.250;2023-01-08T15:45:05;6.28;;;4.00;;
7289;SDS011;63176;52.678;13.250;2023-01-08T15:47:36;6.00;;;3.92;;
7289;SDS011;63176;52.678;13.250;2023-01-08T15:50:02;4.83;;;3.67;;
7289;SDS011;63176;52.678;13.250;2023-01-08T15:52:27;4.30;;;3.50;;
7289;SDS011;63176;52.678;13.250;2023-01-08T15:54:57;5.83;;;4.07;;
7289;SDS011;63176;52.678;13.250;2023-01-08T15:57:24;44.00;;;13.52;;
7289;SDS011;63176;52.678;13.250;2023-01-08T15:59:50;25.67;;;11.43;;
7289;SDS011;63176;52.678;13.250;2023-01-08T16:02:15;7.03;;;5.80;;
7289;SDS011;63176;52.678;13.250;2023-01-08T16:04:42;14.03;;;8.60;;
7289;SDS011;63176;52.678;13.250;2023-01-08T16:07:08;10.63;;;7.57;;
7289;SDS011;63176;52.678;13.250;2023-01-08T16:09:33;9.47;;;5.70;;
7289;SDS011;63176;52.678;13.250;2023-01-08T16:11:59;7.90;;;6.80;;
7289;SDS011;63176;52.678;13.250;2023-01-08T16:14:24;6.53;;;4.90;;
7289;SDS011;63176;52.678;13.250;2023-01-08T16:16:50;17.90;;;9.73;;
7289;SDS011;63176;52.678;13.250;2023-01-08T16:19:16;12.60;;;7.50;;
7289;SDS011;63176;52.678;13.250;2023-01-08T16:21:41;8.67;;;5.00;;
7289;SDS011;63176;52.678;13.250;2023-01-08T16:24:14;8.57;;;5.38;;
7289;SDS011;63176;52.678;13.250;2023-01-08T16:26:40;7.28;;;5.10;;